createdAt,value
2023-03-07T00:00:14.938Z,92950.91
2023-03-07T00:02:41.741Z,92943.78
2023-03-07T00:05:08.855Z,92951.34
2023-03-07T00:07:35.602Z,92944.44
2023-03-07T00:10:02.362Z,92938.03
2023-03-07T00:12:29.206Z,92942.81
2023-03-07T00:14:56.376Z,92942.63
2023-03-07T00:17:23.108Z,92934.31
2023-03-07T00:19:49.963Z,92947.91
2023-03-07T00:22:16.695Z,92947.50
2023-03-07T00:24:43.401Z,92942.53
2023-03-07T00:27:10.507Z,92957.84
2023-03-07T00:29:37.246Z,92944.91
2023-03-07T00:32:04.200Z,92942.72
2023-03-07T00:34:30.972Z,92942.56
2023-03-07T00:36:57.735Z,92947.69
2023-03-07T00:39:24.461Z,92939.28
2023-03-07T00:41:51.125Z,92936.13
2023-03-07T00:44:17.860Z,92927.66
2023-03-07T00:46:44.592Z,92935.56
2023-03-07T00:49:11.283Z,92923.16
2023-03-07T00:51:37.998Z,92903.84
2023-03-07T00:54:04.760Z,92921.41
2023-03-07T00:56:31.778Z,92909.00
2023-03-07T00:58:58.496Z,92911.53
2023-03-07T01:01:25.922Z,92914.50
2023-03-07T01:03:56.454Z,92909.72
2023-03-07T01:06:31.452Z,92901.47
2023-03-07T01:09:00.672Z,92896.94
2023-03-07T01:11:28.357Z,92898.47
2023-03-07T01:13:59.583Z,92899.28
2023-03-07T01:16:29.101Z,92900.06
2023-03-07T01:18:58.976Z,92893.19
2023-03-07T01:21:27.134Z,92894.75
2023-03-07T01:23:54.446Z,92889.06
2023-03-07T01:26:23.666Z,92879.44
2023-03-07T01:28:51.613Z,92876.66
2023-03-07T01:31:18.511Z,92879.44
2023-03-07T01:33:50.528Z,92875.72
2023-03-07T01:36:19.914Z,92867.81
2023-03-07T01:38:47.934Z,92862.06
2023-03-07T01:41:15.039Z,92862.88
2023-03-07T01:43:42.087Z,92861.72
2023-03-07T01:46:18.027Z,92851.13
2023-03-07T01:48:56.310Z,92859.00
2023-03-07T01:51:23.925Z,92859.94
2023-03-07T01:53:53.556Z,92859.72
2023-03-07T01:56:21.223Z,92854.25
2023-03-07T01:58:48.043Z,92851.31
2023-03-07T02:01:15.249Z,92855.03
2023-03-07T02:03:53.143Z,92858.56
2023-03-07T02:06:20.165Z,92847.59
2023-03-07T02:08:49.466Z,92851.13
2023-03-07T02:11:16.740Z,92845.41
2023-03-07T02:13:43.592Z,92847.19
2023-03-07T02:16:10.439Z,92839.34
2023-03-07T02:18:42.449Z,92834.03
2023-03-07T02:21:12.454Z,92834.63
2023-03-07T02:24:04.164Z,92852.63
2023-03-07T02:26:30.871Z,92845.56
2023-03-07T02:28:59.244Z,92849.56
2023-03-07T02:31:26.595Z,92852.31
2023-03-07T02:33:53.536Z,92848.16
2023-03-07T02:36:26.874Z,92832.59
2023-03-07T02:38:55.201Z,92851.13
2023-03-07T02:41:26.330Z,92835.75
2023-03-07T02:43:53.036Z,92840.69
2023-03-07T02:46:20.536Z,92845.59
2023-03-07T02:48:47.434Z,92837.16
2023-03-07T02:51:14.373Z,92840.47
2023-03-07T02:53:41.185Z,92834.38
2023-03-07T02:56:07.966Z,92846.53
2023-03-07T02:58:34.736Z,92850.03
2023-03-07T03:01:01.506Z,92843.31
2023-03-07T03:03:28.351Z,92861.16
2023-03-07T03:05:55.058Z,92847.06
2023-03-07T03:08:21.839Z,92843.91
2023-03-07T03:10:53.860Z,92838.63
2023-03-07T03:13:21.327Z,92840.41
2023-03-07T03:15:48.338Z,92837.69
2023-03-07T03:18:15.292Z,92839.22
2023-03-07T03:20:42.691Z,92835.25
2023-03-07T03:23:09.475Z,92837.59
2023-03-07T03:25:36.772Z,92837.44
2023-03-07T03:28:04.633Z,92845.16
2023-03-07T03:30:32.617Z,92833.34
2023-03-07T03:32:59.381Z,92823.09
2023-03-07T03:35:26.107Z,92821.09
2023-03-07T03:37:52.838Z,92824.06
2023-03-07T03:40:19.759Z,92834.06
2023-03-07T03:42:46.669Z,92825.91
2023-03-07T03:45:15.064Z,92834.72
2023-03-07T03:47:41.828Z,92838.16
2023-03-07T03:50:09.370Z,92837.31
2023-03-07T03:52:36.660Z,92838.28
2023-03-07T03:55:04.096Z,92841.75
2023-03-07T03:57:30.809Z,92837.81
2023-03-07T03:59:57.650Z,92834.06
2023-03-07T04:02:25.000Z,92832.69
2023-03-07T04:04:51.813Z,92826.84
2023-03-07T04:07:18.557Z,92825.66
2023-03-07T04:09:45.356Z,92818.59
2023-03-07T04:12:12.386Z,92830.38
2023-03-07T04:14:39.035Z,92823.84
2023-03-07T04:17:05.812Z,92819.75
2023-03-07T04:19:33.158Z,92812.06
2023-03-07T04:22:00.310Z,92826.97
2023-03-07T04:24:27.101Z,92827.88
2023-03-07T04:26:53.806Z,92815.28
2023-03-07T04:29:20.595Z,92818.28
2023-03-07T04:31:47.373Z,92830.31
2023-03-07T04:34:14.185Z,92835.91
2023-03-07T04:36:40.905Z,92834.84
2023-03-07T04:39:07.679Z,92827.06
2023-03-07T04:41:34.821Z,92830.22
2023-03-07T04:44:01.732Z,92830.22
2023-03-07T04:46:28.613Z,92827.81
2023-03-07T04:48:55.338Z,92827.44
2023-03-07T04:51:22.415Z,92825.06
2023-03-07T04:53:49.097Z,92824.34
2023-03-07T04:56:16.429Z,92828.47
2023-03-07T04:58:44.084Z,92836.91
2023-03-07T05:01:11.427Z,92835.91
2023-03-07T05:03:40.017Z,92842.03
2023-03-07T05:06:08.850Z,92828.25
2023-03-07T05:08:36.030Z,92839.53
2023-03-07T05:11:02.941Z,92831.84
2023-03-07T05:13:29.716Z,92836.94
2023-03-07T05:15:58.306Z,92840.94
2023-03-07T05:18:26.049Z,92837.84
2023-03-07T05:20:52.931Z,92819.56
2023-03-07T05:23:19.924Z,92840.81
2023-03-07T05:25:50.081Z,92835.94
2023-03-07T05:28:17.436Z,92837.06
2023-03-07T05:30:44.844Z,92843.31
2023-03-07T05:33:11.745Z,92844.94
2023-03-07T05:35:39.514Z,92846.53
2023-03-07T05:38:06.797Z,92843.38
2023-03-07T05:40:33.566Z,92837.09
2023-03-07T05:43:00.187Z,92836.31
2023-03-07T05:45:26.869Z,92838.59
2023-03-07T05:47:53.576Z,92832.81
2023-03-07T05:50:21.146Z,92836.56
2023-03-07T05:52:48.120Z,92841.50
2023-03-07T05:55:14.836Z,92835.19
2023-03-07T05:57:41.546Z,92845.19
2023-03-07T06:00:08.917Z,92844.94
2023-03-07T06:02:35.572Z,92846.16
2023-03-07T06:05:02.260Z,92849.31
2023-03-07T06:07:29.028Z,92850.06
2023-03-07T06:09:55.669Z,92853.28
2023-03-07T06:12:22.366Z,92856.47
2023-03-07T06:14:49.179Z,92851.75
2023-03-07T06:17:15.992Z,92854.66
2023-03-07T06:19:42.704Z,92858.63
2023-03-07T06:22:09.341Z,92855.88
2023-03-07T06:24:36.090Z,92860.44
2023-03-07T06:27:02.913Z,92857.69
2023-03-07T06:29:29.638Z,92858.09
2023-03-07T06:31:56.505Z,92849.63
2023-03-07T06:34:23.179Z,92854.16
2023-03-07T06:36:49.750Z,92861.09
2023-03-07T06:39:21.241Z,92858.72
2023-03-07T06:41:51.513Z,92856.56
2023-03-07T06:44:18.370Z,92856.41
2023-03-07T06:46:45.982Z,92856.41
2023-03-07T06:49:12.814Z,92851.13
2023-03-07T06:51:39.630Z,92856.50
2023-03-07T06:54:06.402Z,92859.59
2023-03-07T06:56:34.434Z,92863.34
2023-03-07T06:59:01.172Z,92867.09
2023-03-07T07:01:27.924Z,92864.53
2023-03-07T07:03:54.614Z,92864.19
2023-03-07T07:06:21.366Z,92868.53
2023-03-07T07:08:48.061Z,92861.50
2023-03-07T07:11:14.750Z,92871.53
2023-03-07T07:13:41.438Z,92873.69
2023-03-07T07:16:08.888Z,92874.47
2023-03-07T07:18:35.661Z,92874.47
2023-03-07T07:21:02.598Z,92887.41
2023-03-07T07:23:29.332Z,92880.34
2023-03-07T07:25:56.014Z,92883.13
2023-03-07T07:28:22.865Z,92879.25
2023-03-07T07:30:49.571Z,92871.75
2023-03-07T07:33:17.058Z,92868.44
2023-03-07T07:35:44.678Z,92863.69
2023-03-07T07:38:12.162Z,92865.25
2023-03-07T07:40:39.305Z,92858.38
2023-03-07T07:43:06.210Z,92856.16
2023-03-07T07:45:33.044Z,92854.06
2023-03-07T07:47:59.706Z,92857.00
2023-03-07T07:50:26.416Z,92855.97
2023-03-07T07:52:54.426Z,92849.28
2023-03-07T07:55:21.393Z,92854.63
2023-03-07T07:57:48.062Z,92850.69
2023-03-07T08:00:19.559Z,92842.47
2023-03-07T08:02:50.107Z,92841.56
2023-03-07T08:05:18.595Z,92845.44
2023-03-07T08:07:45.640Z,92842.28
2023-03-07T08:10:16.094Z,92836.03
2023-03-07T08:12:44.087Z,92840.75
2023-03-07T08:15:11.442Z,92836.88
2023-03-07T08:17:38.176Z,92830.06
2023-03-07T08:20:09.345Z,92819.25
2023-03-07T08:22:37.208Z,92813.81
2023-03-07T08:25:07.456Z,92818.63
2023-03-07T08:27:34.415Z,92817.75
2023-03-07T08:30:01.449Z,92821.66
2023-03-07T08:32:28.596Z,92821.00
2023-03-07T08:34:55.336Z,92823.00
2023-03-07T08:37:21.948Z,92818.66
2023-03-07T08:39:48.759Z,92815.19
2023-03-07T08:42:15.557Z,92813.28
2023-03-07T08:44:42.330Z,92817.66
2023-03-07T08:47:11.516Z,92820.69
2023-03-07T08:49:38.387Z,92810.31
2023-03-07T08:52:05.364Z,92807.03
2023-03-07T08:54:32.632Z,92794.91
2023-03-07T08:57:00.570Z,92801.34
2023-03-07T08:59:27.454Z,92801.00
2023-03-07T09:01:55.679Z,92802.09
2023-03-07T09:04:22.573Z,92798.88
2023-03-07T09:06:49.329Z,92797.53
2023-03-07T09:09:16.167Z,92794.28
2023-03-07T09:11:42.950Z,92791.56
2023-03-07T09:14:09.759Z,92791.78
2023-03-07T09:16:36.452Z,92791.78
2023-03-07T09:19:03.788Z,92785.66
2023-03-07T09:21:30.530Z,92783.75
2023-03-07T09:23:57.261Z,92785.56
2023-03-07T09:26:24.002Z,92782.19
2023-03-07T09:28:50.691Z,92780.25
2023-03-07T09:31:17.496Z,92769.84
2023-03-07T09:33:46.638Z,92767.91
2023-03-07T09:36:13.990Z,92774.22
2023-03-07T09:38:40.762Z,92772.53
2023-03-07T09:41:21.337Z,92776.47
2023-03-07T09:43:55.065Z,92764.44
2023-03-07T09:46:24.853Z,92766.63
2023-03-07T09:49:21.873Z,92757.03
2023-03-07T09:51:51.848Z,92758.81
2023-03-07T09:54:40.395Z,92759.66
2023-03-07T09:57:17.815Z,92752.94
2023-03-07T09:59:51.164Z,92742.13
2023-03-07T10:02:26.495Z,92743.50
2023-03-07T10:04:59.321Z,92739.38
2023-03-07T10:07:26.975Z,92728.81
2023-03-07T10:10:02.468Z,92737.53
2023-03-07T10:13:07.898Z,92735.53
2023-03-07T10:15:54.904Z,92731.06
2023-03-07T10:18:31.698Z,92727.88
2023-03-07T10:21:04.427Z,92721.53
2023-03-07T10:23:42.377Z,92722.25
2023-03-07T10:26:18.702Z,92703.59
2023-03-07T10:28:45.937Z,92708.06
2023-03-07T10:31:25.451Z,92706.81
2023-03-07T10:33:53.819Z,92694.16
2023-03-07T10:36:33.449Z,92700.63
2023-03-07T10:39:37.999Z,92684.34
2023-03-07T10:42:04.837Z,92682.00
2023-03-07T10:44:34.253Z,92684.94
2023-03-07T10:47:01.389Z,92662.88
2023-03-07T10:49:40.148Z,92660.19
2023-03-07T10:52:18.080Z,92663.03
2023-03-07T10:54:44.743Z,92651.75
2023-03-07T10:57:16.885Z,92649.00
2023-03-07T10:59:48.610Z,92635.41
2023-03-07T11:02:45.529Z,92630.84
2023-03-07T11:05:32.962Z,92622.63
2023-03-07T11:08:00.547Z,92617.13
2023-03-07T11:10:39.679Z,92623.50
2023-03-07T11:13:14.520Z,92621.47
2023-03-07T11:15:41.282Z,92606.59
2023-03-07T11:18:28.633Z,92604.78
2023-03-07T11:20:55.955Z,92597.13
2023-03-07T11:23:30.809Z,92587.38
2023-03-07T11:26:22.010Z,92579.72
2023-03-07T11:29:04.675Z,92573.00
2023-03-07T11:32:04.666Z,92572.41
2023-03-07T11:34:49.300Z,92559.09
2023-03-07T11:37:37.325Z,92543.97
2023-03-07T11:40:13.103Z,92547.97
2023-03-07T11:42:50.568Z,92537.34
2023-03-07T11:45:26.276Z,92535.25
2023-03-07T11:48:27.017Z,92529.53
2023-03-07T11:51:00.203Z,92527.50
2023-03-07T11:53:40.406Z,92510.06
2023-03-07T11:56:24.920Z,92508.03
2023-03-07T11:59:24.429Z,92511.56
2023-03-07T12:01:59.301Z,92505.16
2023-03-07T12:04:38.253Z,92491.31
2023-03-07T12:07:14.021Z,92482.19
2023-03-07T12:10:17.665Z,92475.91
2023-03-07T12:12:47.052Z,92468.66
2023-03-07T12:15:48.110Z,92451.31
2023-03-07T12:18:44.582Z,92452.31
2023-03-07T12:21:28.693Z,92443.84
2023-03-07T12:24:25.390Z,92448.50
2023-03-07T12:27:01.694Z,92443.44
2023-03-07T12:29:38.467Z,92440.59
2023-03-07T12:32:10.900Z,92442.06
2023-03-07T12:34:44.099Z,92419.34
2023-03-07T12:37:18.861Z,92421.31
2023-03-07T12:39:57.553Z,92417.22
2023-03-07T12:42:35.536Z,92406.56
2023-03-07T12:45:26.846Z,92400.78
2023-03-07T12:47:54.104Z,92404.44
2023-03-07T12:50:46.180Z,92400.59
2023-03-07T12:53:22.443Z,92392.34
2023-03-07T12:55:57.671Z,92375.06
2023-03-07T12:58:57.550Z,92387.97
2023-03-07T13:01:32.049Z,92376.22
2023-03-07T13:04:07.955Z,92374.94
2023-03-07T13:06:38.506Z,92370.84
2023-03-07T13:09:05.555Z,92368.72
2023-03-07T13:11:34.402Z,92370.97
2023-03-07T13:14:02.980Z,92368.69
2023-03-07T13:17:00.300Z,92368.47
2023-03-07T13:19:39.398Z,92363.41
2023-03-07T13:22:15.201Z,92364.25
2023-03-07T13:24:43.240Z,92359.00
2023-03-07T13:27:20.907Z,92363.69
2023-03-07T13:30:18.259Z,92358.44
2023-03-07T13:32:51.191Z,92356.84
2023-03-07T13:35:39.409Z,92350.09
2023-03-07T13:38:24.219Z,92352.28
2023-03-07T13:40:54.894Z,92345.00
2023-03-07T13:43:27.573Z,92347.47
2023-03-07T13:45:59.435Z,92341.09
2023-03-07T13:48:31.601Z,92343.31
2023-03-07T13:51:01.209Z,92342.13
2023-03-07T13:53:27.829Z,92341.88
2023-03-07T13:56:17.984Z,92336.34
2023-03-07T13:58:50.301Z,92332.59
2023-03-07T14:01:19.340Z,92331.00
2023-03-07T14:03:49.565Z,92326.19
2023-03-07T14:06:32.316Z,92331.56
2023-03-07T14:09:02.244Z,92322.78
2023-03-07T14:11:53.248Z,92323.81
2023-03-07T14:14:25.893Z,92316.19
2023-03-07T14:17:20.600Z,92320.22
2023-03-07T14:20:18.055Z,92313.22
2023-03-07T14:23:03.173Z,92313.78
2023-03-07T14:25:34.991Z,92305.56
2023-03-07T14:28:05.737Z,92309.97
2023-03-07T14:30:33.901Z,92299.47
2023-03-07T14:33:01.442Z,92304.38
2023-03-07T14:35:42.825Z,92292.22
2023-03-07T14:38:21.365Z,92293.69
2023-03-07T14:41:29.741Z,92294.94
2023-03-07T14:44:10.795Z,92293.44
2023-03-07T14:46:56.724Z,92287.78
2023-03-07T14:49:33.357Z,92291.94
2023-03-07T14:52:03.297Z,92286.13
2023-03-07T14:54:34.782Z,92276.31
2023-03-07T14:57:03.639Z,92273.84
2023-03-07T14:59:30.994Z,92275.97
2023-03-07T15:01:57.913Z,92272.84
2023-03-07T15:04:30.283Z,92271.19
2023-03-07T15:07:02.169Z,92257.09
2023-03-07T15:09:30.102Z,92256.19
2023-03-07T15:12:20.613Z,92257.28
2023-03-07T15:14:52.812Z,92260.22
2023-03-07T15:17:23.605Z,92257.69
2023-03-07T15:19:54.939Z,92253.47
2023-03-07T15:22:27.843Z,92249.97
2023-03-07T15:24:54.816Z,92246.94
2023-03-07T15:27:28.062Z,92241.81
2023-03-07T15:29:55.444Z,92240.72
2023-03-07T15:32:41.215Z,92238.94
2023-03-07T15:35:07.928Z,92234.56
2023-03-07T15:37:36.585Z,92234.09
2023-03-07T15:40:09.478Z,92231.78
2023-03-07T15:42:55.754Z,92233.59
2023-03-07T15:45:32.731Z,92239.38
2023-03-07T15:48:02.798Z,92232.13
2023-03-07T15:50:29.897Z,92232.41
2023-03-07T15:53:02.129Z,92233.22
2023-03-07T15:55:29.445Z,92228.25
2023-03-07T15:58:05.056Z,92239.63
2023-03-07T16:00:37.218Z,92231.03
2023-03-07T16:03:22.135Z,92232.09
2023-03-07T16:05:49.636Z,92229.44
2023-03-07T16:08:17.942Z,92237.72
2023-03-07T16:10:50.893Z,92232.53
2023-03-07T16:13:20.676Z,92237.19
2023-03-07T16:16:05.684Z,92235.34
2023-03-07T16:18:33.000Z,92235.28
2023-03-07T16:21:00.207Z,92242.22
2023-03-07T16:23:30.920Z,92242.66
2023-03-07T16:25:59.482Z,92246.91
2023-03-07T16:28:26.443Z,92254.66
2023-03-07T16:30:53.185Z,92255.09
2023-03-07T16:33:20.032Z,92254.75
2023-03-07T16:35:47.781Z,92247.72
2023-03-07T16:38:14.556Z,92253.47
2023-03-07T16:40:43.543Z,92257.03
2023-03-07T16:43:27.248Z,92264.19
2023-03-07T16:45:55.426Z,92259.25
2023-03-07T16:48:22.305Z,92256.06
2023-03-07T16:50:49.146Z,92270.22
2023-03-07T16:53:16.498Z,92269.44
2023-03-07T16:55:43.341Z,92270.06
2023-03-07T16:58:20.408Z,92269.94
2023-03-07T17:00:47.128Z,92270.75
2023-03-07T17:03:13.925Z,92276.13
2023-03-07T17:05:40.628Z,92272.34
2023-03-07T17:08:08.432Z,92278.34
2023-03-07T17:10:36.839Z,92283.44
2023-03-07T17:13:06.542Z,92291.47
2023-03-07T17:15:33.387Z,92296.81
2023-03-07T17:18:00.888Z,92296.13
2023-03-07T17:20:28.029Z,92293.56
2023-03-07T17:22:54.904Z,92297.19
2023-03-07T17:25:23.002Z,92301.47
2023-03-07T17:28:00.464Z,92295.53
2023-03-07T17:30:29.409Z,92315.69
2023-03-07T17:32:56.804Z,92315.03
2023-03-07T17:35:24.000Z,92307.06
2023-03-07T17:37:53.073Z,92318.72
2023-03-07T17:40:21.069Z,92332.28
2023-03-07T17:42:51.896Z,92332.69
2023-03-07T17:45:19.103Z,92333.53
2023-03-07T17:47:50.327Z,92342.81
2023-03-07T17:50:19.548Z,92350.03
2023-03-07T17:52:46.359Z,92358.03
2023-03-07T17:55:14.989Z,92363.78
2023-03-07T17:57:41.794Z,92365.63
2023-03-07T18:00:14.226Z,92354.44
2023-03-07T18:02:43.835Z,92368.16
2023-03-07T18:05:12.960Z,92367.00
2023-03-07T18:07:40.831Z,92368.47
2023-03-07T18:10:09.534Z,92376.16
2023-03-07T18:12:39.354Z,92380.66
2023-03-07T18:15:07.974Z,92390.72
2023-03-07T18:17:46.990Z,92391.06
2023-03-07T18:20:15.311Z,92397.66
2023-03-07T18:22:42.851Z,92403.25
2023-03-07T18:25:13.353Z,92415.69
2023-03-07T18:27:40.093Z,92425.41
2023-03-07T18:30:07.294Z,92437.94
2023-03-07T18:32:34.399Z,92446.84
2023-03-07T18:35:01.204Z,92444.53
2023-03-07T18:37:28.852Z,92449.22
2023-03-07T18:39:55.909Z,92453.31
2023-03-07T18:42:22.683Z,92458.50
2023-03-07T18:44:49.407Z,92458.72
2023-03-07T18:47:16.077Z,92468.22
2023-03-07T18:49:42.839Z,92471.34
2023-03-07T18:52:09.606Z,92481.09
2023-03-07T18:54:36.354Z,92479.63
2023-03-07T18:57:03.079Z,92487.41
2023-03-07T18:59:29.866Z,92486.19
2023-03-07T19:01:56.702Z,92491.47
2023-03-07T19:04:23.453Z,92503.41
2023-03-07T19:06:50.076Z,92505.97
2023-03-07T19:09:19.502Z,92497.25
2023-03-07T19:11:47.172Z,92509.19
2023-03-07T19:14:14.092Z,92516.13
2023-03-07T19:16:41.703Z,92516.69
2023-03-07T19:19:08.509Z,92518.16
2023-03-07T19:21:35.331Z,92522.88
2023-03-07T19:24:04.508Z,92529.25
2023-03-07T19:26:31.403Z,92531.72
2023-03-07T19:28:58.222Z,92540.78
2023-03-07T19:31:29.825Z,92536.44
2023-03-07T19:33:56.996Z,92522.19
2023-03-07T19:36:31.098Z,92537.81
2023-03-07T19:38:59.852Z,92551.94
2023-03-07T19:41:28.862Z,92552.28
2023-03-07T19:43:57.278Z,92556.84
2023-03-07T19:46:24.427Z,92563.44
2023-03-07T19:48:51.087Z,92567.50
2023-03-07T19:51:20.523Z,92563.50
2023-03-07T19:53:47.732Z,92571.63
2023-03-07T19:56:18.139Z,92574.09
2023-03-07T19:58:44.848Z,92570.50
2023-03-07T20:01:14.650Z,92567.38
2023-03-07T20:03:42.757Z,92569.72
2023-03-07T20:06:12.457Z,92574.66
2023-03-07T20:08:39.152Z,92571.63
2023-03-07T20:11:17.230Z,92576.91
2023-03-07T20:13:46.040Z,92568.28
2023-03-07T20:16:15.093Z,92570.66
2023-03-07T20:18:42.149Z,92575.00
2023-03-07T20:21:14.274Z,92580.72
2023-03-07T20:23:43.788Z,92581.59
2023-03-07T20:26:16.887Z,92582.59
2023-03-07T20:28:44.033Z,92581.66
2023-03-07T20:31:11.377Z,92574.75
2023-03-07T20:33:39.921Z,92583.81
2023-03-07T20:36:09.847Z,92585.06
2023-03-07T20:38:38.408Z,92584.50
2023-03-07T20:41:07.338Z,92579.56
2023-03-07T20:43:34.468Z,92583.59
2023-03-07T20:46:12.561Z,92579.66
2023-03-07T20:48:40.572Z,92583.16
2023-03-07T20:51:18.466Z,92581.56
2023-03-07T20:53:50.559Z,92580.09
2023-03-07T20:56:20.595Z,92589.28
2023-03-07T20:58:48.711Z,92578.94
2023-03-07T21:01:17.773Z,92585.81
2023-03-07T21:03:44.582Z,92577.97
2023-03-07T21:06:11.665Z,92579.97
2023-03-07T21:08:38.369Z,92575.97
2023-03-07T21:11:06.885Z,92574.66
2023-03-07T21:13:36.095Z,92572.66
2023-03-07T21:16:06.366Z,92586.06
2023-03-07T21:18:34.022Z,92582.13
2023-03-07T21:21:02.368Z,92587.88
2023-03-07T21:23:29.291Z,92585.28
2023-03-07T21:26:19.536Z,92585.72
2023-03-07T21:28:46.507Z,92580.56
2023-03-07T21:31:13.218Z,92576.22
2023-03-07T21:33:42.240Z,92581.25
2023-03-07T21:36:09.856Z,92585.09
2023-03-07T21:38:38.231Z,92596.25
2023-03-07T21:41:05.547Z,92600.03
2023-03-07T21:43:32.441Z,92606.25
2023-03-07T21:46:03.538Z,92608.50
2023-03-07T21:48:30.649Z,92606.63
2023-03-07T21:50:57.295Z,92610.75
2023-03-07T21:53:23.981Z,92612.38
2023-03-07T21:55:56.903Z,92620.22
2023-03-07T21:58:24.378Z,92623.34
2023-03-07T22:00:51.697Z,92617.44
2023-03-07T22:03:19.036Z,92625.22
2023-03-07T22:05:46.124Z,92627.63
2023-03-07T22:08:12.881Z,92635.88
2023-03-07T22:10:39.495Z,92632.88
2023-03-07T22:13:06.981Z,92620.03
2023-03-07T22:15:33.909Z,92629.78
2023-03-07T22:18:00.547Z,92639.06
2023-03-07T22:20:27.233Z,92625.91
2023-03-07T22:22:53.924Z,92635.91
2023-03-07T22:25:20.888Z,92630.91
2023-03-07T22:27:47.500Z,92635.63
2023-03-07T22:30:14.724Z,92619.25
2023-03-07T22:32:44.625Z,92630.50
2023-03-07T22:35:11.321Z,92632.63
2023-03-07T22:37:37.925Z,92629.06
2023-03-07T22:40:05.149Z,92629.59
2023-03-07T22:42:31.792Z,92638.56
2023-03-07T22:44:58.381Z,92640.44
2023-03-07T22:47:25.010Z,92636.94
2023-03-07T22:49:51.577Z,92638.34
2023-03-07T22:52:18.246Z,92634.72
2023-03-07T22:54:44.820Z,92640.63
2023-03-07T22:57:11.436Z,92650.50
2023-03-07T22:59:38.052Z,92636.50
2023-03-07T23:02:04.680Z,92658.75
2023-03-07T23:04:31.316Z,92652.28
2023-03-07T23:06:57.946Z,92653.63
2023-03-07T23:09:24.568Z,92655.97
2023-03-07T23:11:51.219Z,92659.41
2023-03-07T23:14:17.795Z,92663.75
2023-03-07T23:16:44.522Z,92656.97
2023-03-07T23:19:11.208Z,92657.59
2023-03-07T23:21:37.821Z,92659.03
2023-03-07T23:24:04.861Z,92662.75
2023-03-07T23:26:36.867Z,92654.41
2023-03-07T23:29:05.827Z,92662.91
2023-03-07T23:31:35.636Z,92661.03
2023-03-07T23:34:05.150Z,92663.59
2023-03-07T23:36:32.684Z,92665.91
2023-03-07T23:39:00.083Z,92661.88
2023-03-07T23:41:27.428Z,92670.03
2023-03-07T23:43:55.902Z,92659.19
2023-03-07T23:46:23.107Z,92668.66
2023-03-07T23:48:49.898Z,92683.97
2023-03-07T23:51:16.702Z,92680.63
2023-03-07T23:53:43.360Z,92681.63
2023-03-07T23:56:10.764Z,92686.13
2023-03-07T23:58:37.823Z,92690.50
